Wednesday, August 15, 2018, 12:49 AM EDT
Back to Local

KRME, Griffiss Airfield

Location: Rome, NY, United States Lat: 43.233
Local Time: 12:49 AM EDT ( 4:49 GMT) Lon: -75.4
Time Zone: US/Eastern Elev: 505 ft

Show me the last for .
Show Decoded

2018-08-15 00:21 METAR KRME 150421Z AUTO 33003KT 10SM BKN012 OVC018 21/21 A2987 RMK AO2 T02060206
                 =
2018-08-15 00:03 METAR KRME 150403Z AUTO 00000KT 10SM SCT006 OVC017 21/21 A2987 RMK AO2 LTG DSNT
                 S T02060206 =
2018-08-14 23:53 METAR KRME 150353Z AUTO 00000KT 10SM BKN004 BKN009 21/21 A2987 RMK AO2 LTG DSNT
                 S SLP109 T02060206 =
2018-08-14 23:35 METAR KRME 150335Z AUTO 00000KT 10SM BKN004 BKN110 21/21 A2986 RMK AO2 LTG DSNT
                 S T02060206 =
2018-08-14 23:16 METAR KRME 150316Z AUTO 00000KT 10SM SCT009 BKN060 BKN110 21/21 A2985 RMK AO2
                 T02060206 =
2018-08-14 23:09 METAR KRME 150309Z AUTO 00000KT 10SM SCT009 BKN022 OVC070 21/21 A2985 RMK AO2
                 T02060206 =
2018-08-14 22:53 METAR KRME 150253Z AUTO 00000KT 10SM BKN010 BKN022 OVC065 21/21 A2986 RMK AO2
                 LTG DSNT NW CIG 007V013 SLP108 T02060206 53007 =
2018-08-14 21:53 METAR KRME 150153Z AUTO 00000KT 10SM SCT014 21/21 A2985 RMK AO2 LTG DSNT SW-N
                 SLP104 T02110206 =
2018-08-14 21:50 METAR KRME 150150Z AUTO 00000KT 10SM SCT014 21/21 A2985 RMK AO2 LTG DSNT SW-N =
2018-08-14 21:43 METAR KRME 150143Z AUTO 00000KT 10SM BKN014 21/21 A2985 RMK AO2 LTG DSNT SW-N
                 T02060206 =
2018-08-14 20:53 METAR KRME 150053Z 00000KT 10SM FEW010 BKN100 21/21 A2984 RMK AO2 LTG DSNT S AND
                 W SLP101 T02110211 =
2018-08-14 20:00 METAR KRME 150000Z 00000KT 10SM FEW042 FEW060 22/21 A2983 RMK AO2 LTG DSNT S-NW
                 T02170206 =
2018-08-14 19:53 METAR KRME 142353Z 00000KT 10SM VCTS FEW013 FEW042 SCT060 22/21 A2982 RMK AO2
                 LTG DSNT S-NW SLP095 60002 T02170206 10244 20217 53008 =
2018-08-14 19:45 METAR KRME 142345Z 00000KT 10SM VCTS FEW007 SCT013 BKN042 22/21 A2982 RMK AO2
                 LTG DSNT S-NW T02170211 =
2018-08-14 19:36 METAR KRME 142336Z 00000KT 10SM FEW007 SCT013 BKN060 22/21 A2983 RMK AO2 LTG
                 DSNT ALQDS T02170211 =
2018-08-14 19:22 METAR KRME 142322Z 00000KT 10SM VCTS SCT007 BKN012 BKN043 22/21 A2982 RMK AO2
                 LTG DSNT ALQDS T02170211 =
2018-08-14 19:13 METAR KRME 142313Z 22003KT 10SM VCTS SCT008 BKN043 BKN055 22/21 A2981 RMK AO2
                 LTG DSNT ALQDS T02170211 =
2018-08-14 18:56 METAR KRME 142256Z 24005KT 10SM VCTS BKN007 BKN017 OVC022 22/21 A2982 RMK AO2
                 LTG DSNT S AND SW T02170211 =
2018-08-14 18:53 METAR KRME 142253Z 24004KT 10SM SCT007 BKN017 OVC045 22/21 A2982 RMK AO2 LTG
                 DSNT S-NW RAE13 SLP093 P0000 T02170211 =
2018-08-14 18:40 METAR KRME 142240Z 25005KT 10SM SCT009 BKN016 OVC045 22/21 A2981 RMK AO2 LTG
                 DSNT S-NW RAE13 P0000 T02170211 =
2018-08-14 18:12 METAR KRME 142212Z 25005KT 10SM -RA BKN011 OVC044 22/21 A2981 RMK AO2 LTG DSNT
                 SE AND SW P0000 T02220211 =
2018-08-14 18:02 METAR KRME 142202Z 23005KT 4SM -RA BR SCT009 BKN033 OVC046 22/22 A2980 RMK AO2
                 LTG DSNT N AND SE P0000 T02220217 =
2018-08-14 17:53 METAR KRME 142153Z 24006KT 2SM -RA BR FEW013 BKN033 OVC046 22/22 A2980 RMK AO2
                 LTG DSNT N AND SE RAB33 SLP087 P0002 T02220217 =
2018-08-14 17:41 METAR KRME 142141Z 23005KT 2 1/2SM -RA BR FEW014 BKN025 OVC033 22/21 A2980 RMK
                 AO2 LTG DSNT N AND SE RAB33 P0000 T02220211 =
2018-08-14 16:53 METAR KRME 142053Z 23009KT 10SM OVC012 22/21 A2980 RMK AO2 LTG DSNT N AND SE AND
                 W SLP088 T02220206 58005 =
2018-08-14 16:29 METAR KRME 142029Z 23007KT 10SM BKN014 OVC020 23/21 A2981 RMK AO2 LTG DSNT SE
                 AND S T02280211 =
2018-08-14 15:53 METAR KRME 141953Z 24010KT 10SM SCT014 BKN024 OVC041 23/21 A2981 RMK AO2 LTG
                 DSNT SW AND NW SLP090 T02330206 =
2018-08-14 15:18 METAR KRME 141918Z 23009KT 10SM SCT012 OVC019 23/21 A2981 RMK AO2 LTG DSNT SW
                 AND W T02330211 =
2018-08-14 15:02 METAR KRME 141902Z 22009KT 10SM BKN010 BKN015 OVC036 24/22 A2982 RMK AO2 LTG
                 DSNT SW AND W CIG 008V012 T02390217 =
2018-08-14 14:53 METAR KRME 141853Z 20007KT 10SM SCT010 BKN015 OVC036 23/21 A2982 RMK AO2 LTG
                 DSNT W SLP094 T02330211 =
2018-08-14 14:36 METAR KRME 141836Z 24006KT 10SM FEW008 SCT012 BKN029 23/22 A2982 RMK AO2 LTG
                 DSNT E AND W T02330217 =
2018-08-14 14:18 METAR KRME 141818Z 24007KT 10SM FEW012 SCT025 BKN037 24/22 A2982 RMK AO2 LTG
                 DSNT E AND SE AND W T02390217 =
2018-08-14 13:53 METAR KRME 141753Z 24011KT 10SM FEW012 SCT017 BKN023 24/22 A2982 RMK AO2 LTG
                 DSNT W RAB36E50 SLP092 P0000 60003 T02440217 10261 20206 55008 =
2018-08-14 13:44 METAR KRME 141744Z 23010KT 9SM -RA FEW012 BKN018 BKN027 23/22 A2982 RMK AO2 LTG
                 DSNT W RAB36 P0000 T02330217 =
2018-08-14 12:53 METAR KRME 141653Z 15010KT 10SM SCT018 SCT029 BKN036 25/22 A2981 RMK AO2 RAE03
                 SLP091 P0000 T02500217 =
2018-08-14 12:20 METAR KRME 141620Z 14008KT 10SM FEW011 SCT022 SCT037 25/22 A2982 RMK AO2 RAE03
                 P0000 T02500217 =
2018-08-14 12:09 METAR KRME 141609Z VRB05KT 10SM FEW008 SCT011 BKN018 24/22 A2982 RMK AO2 RAE03
                 P0000 T02440222 =
2018-08-14 12:05 METAR KRME 141605Z 14006KT 10SM SCT011 SCT018 BKN065 24/22 A2983 RMK AO2 RAE03
                 P0000 T02440222 =
2018-08-14 11:53 METAR KRME 141553Z 09009KT 7SM -RA BKN013 BKN034 OVC065 23/22 A2983 RMK AO2
                 RAB41 SLP097 P0002 T02330222 =
2018-08-14 11:36 METAR KRME 141536Z 10006KT 10SM SCT012 SCT029 BKN036 24/21 A2983 RMK AO2
                 T02390211 =
2018-08-14 11:21 METAR KRME 141521Z 16007KT 10SM SCT012 BKN029 OVC055 23/22 A2984 RMK AO2 LTG
                 DSNT NW T02330217 =
2018-08-14 10:53 METAR KRME 141453Z 11007KT 10SM FEW016 BKN044 OVC060 23/22 A2984 RMK AO2
                 RAB19E35 SLP101 P0000 60001 T02330217 58008 =
2018-08-14 10:26 METAR KRME 141426Z VRB03KT 8SM -RA FEW020 BKN035 OVC055 23/22 A2984 RMK AO2
                 RAB19 P0000 T02280217 =
2018-08-14 10:09 METAR KRME 141409Z 09003KT 10SM SCT014 BKN021 OVC033 23/21 A2985 RMK AO2
                 T02280211 =
2018-08-14 09:53 METAR KRME 141353Z VRB03KT 10SM FEW009 BKN012 OVC021 22/21 A2985 RMK AO2 RAE30
                 SLP104 P0000 T02220211 =
2018-08-14 09:35 METAR KRME 141335Z 00000KT 10SM FEW008 OVC012 22/21 A2985 RMK AO2 RAE30 P0000
                 T02220211 =
2018-08-14 08:53 METAR KRME 141253Z 00000KT 4SM -RA BR BKN012 OVC018 21/21 A2986 RMK AO2 LTG DSNT
                 SW RAE16B45 SLP106 P0001 T02110206 =
2018-08-14 08:09 METAR KRME 141209Z 33007KT 5SM -RA BR OVC019 21/21 A2986 RMK AO2 P0001 T02060206
                 =
2018-08-14 08:02 METAR KRME 141202Z 32007KT 2 1/2SM -RA BR BKN017 OVC022 21/21 A2986 RMK AO2 VIS
                 2V4 P0001 T02060206 =
2018-08-14 07:53 METAR KRME 141153Z 32006KT 1 1/2SM -RA BR BKN022 OVC036 21/21 A2987 RMK AO2
                 SLP109 P0016 60029 70080 T02060206 10206 20200 56007 =
2018-08-14 07:20 METAR KRME 141120Z 31006KT 1SM +RA BR FEW009 SCT020 OVC025 20/20 A2987 RMK AO2
                 P0006 T02000200 RVRNO =
2018-08-14 07:08 METAR KRME 141108Z 32005KT 1 3/4SM RA BR OVC022 21/21 A2988 RMK AO2 P0002
                 T02060206 =
2018-08-14 06:53 METAR KRME 141053Z 31003KT 5SM -RA BR FEW021 BKN025 OVC042 21/21 A2988 RMK AO2
                 RAB49 SLP113 P0000 T02060206 =
2018-08-14 05:53 METAR KRME 140953Z AUTO 00000KT 10SM BKN042 BKN060 OVC075 21/20 A2987 RMK AO2
                 RAB0858E50 SLP110 P0001 T02060200 =
2018-08-14 04:53 METAR KRME 140853Z AUTO 02003KT 10SM OVC045 21/20 A2989 RMK AO2 RAB27E51 SLP115
                 P0001 60012 T02060200 56016 =
2018-08-14 03:53 METAR KRME 140753Z AUTO 33004KT 10SM BKN040 BKN060 20/20 A2990 RMK AO2 SLP120
                 T02000200 =
2018-08-14 02:53 METAR KRME 140653Z AUTO 31004KT 10SM SCT042 BKN050 20/20 A2992 RMK AO2 RAE49
                 SLP125 P0011 T02000200 =
2018-08-14 02:31 METAR KRME 140631Z AUTO 32005KT 4SM -RA BR FEW008 BKN044 OVC080 21/21 A2992 RMK
                 AO2 P0011 T02060206 =
2018-08-14 02:12 METAR KRME 140612Z AUTO 00000KT 2 1/2SM +RA BR FEW007 BKN080 OVC100 21/21 A2993
                 RMK AO2 P0007 T02060206 =
2018-08-14 02:01 METAR KRME 140601Z AUTO 00000KT 3SM +RA BR FEW010 SCT075 OVC090 21/21 A2993 RMK
                 AO2 P0003 T02060206 =
2018-08-14 01:53 METAR KRME 140553Z AUTO 00000KT 2 1/2SM +RA BR FEW070 BKN090 OVC110 21/21 A2993
                 RMK AO2 SLP131 P0017 60051 T02060206 10228 20206 58010 =
2018-08-14 01:33 METAR KRME 140533Z AUTO 31004KT 2 1/2SM +RA BR FEW031 BKN090 OVC110 21/21 A2994
                 RMK AO2 P0011 T02060206 =
2018-08-14 01:17 METAR KRME 140517Z AUTO 32003KT 3SM RA BR SCT024 BKN030 BKN110 21/21 A2995 RMK
                 AO2 P0005 T02060206 =
2018-08-14 01:07 METAR KRME 140507Z AUTO 31003KT 3SM RA BR BKN024 BKN043 BKN110 21/21 A2995 RMK
                 AO2 P0003 T02060206 =
2018-08-14 00:53 METAR KRME 140453Z AUTO 32004KT 4SM RA BR FEW027 SCT090 BKN110 21/21 A2995 RMK
                 AO2 SLP136 P0021 T02060206 402670194 =

Support USWX by starting your Amazon purchase here.